sensor_id;sensor_type;location;lat;lon;timestamp;P1;durP1;ratioP1;P2;durP2;ratioP2
10701;SDS011;5402;50.004;8.246;2024-01-10T00:00:38;11.50;;;5.87;;
10701;SDS011;5402;50.004;8.246;2024-01-10T00:03:05;12.87;;;6.77;;
10701;SDS011;5402;50.004;8.246;2024-01-10T00:05:32;11.93;;;6.23;;
10701;SDS011;5402;50.004;8.246;2024-01-10T00:07:58;12.00;;;6.20;;
10701;SDS011;5402;50.004;8.246;2024-01-10T00:10:27;9.33;;;5.37;;
10701;SDS011;5402;50.004;8.246;2024-01-10T00:12:53;14.83;;;6.20;;
10701;SDS011;5402;50.004;8.246;2024-01-10T00:15:20;11.93;;;6.00;;
10701;SDS011;5402;50.004;8.246;2024-01-10T00:17:47;12.73;;;6.03;;
10701;SDS011;5402;50.004;8.246;2024-01-10T00:20:13;11.03;;;6.20;;
10701;SDS011;5402;50.004;8.246;2024-01-10T00:22:40;10.57;;;5.37;;
10701;SDS011;5402;50.004;8.246;2024-01-10T00:25:07;10.50;;;5.70;;
10701;SDS011;5402;50.004;8.246;2024-01-10T00:27:38;9.40;;;4.70;;
10701;SDS011;5402;50.004;8.246;2024-01-10T00:30:05;12.50;;;5.80;;
10701;SDS011;5402;50.004;8.246;2024-01-10T00:32:35;14.30;;;6.57;;
10701;SDS011;5402;50.004;8.246;2024-01-10T00:35:02;11.77;;;6.27;;
10701;SDS011;5402;50.004;8.246;2024-01-10T00:37:29;12.57;;;6.50;;
10701;SDS011;5402;50.004;8.246;2024-01-10T00:39:55;14.60;;;6.93;;
10701;SDS011;5402;50.004;8.246;2024-01-10T00:42:24;12.60;;;5.80;;
10701;SDS011;5402;50.004;8.246;2024-01-10T00:44:52;14.40;;;6.60;;
10701;SDS011;5402;50.004;8.246;2024-01-10T00:47:19;13.43;;;6.20;;
10701;SDS011;5402;50.004;8.246;2024-01-10T00:49:46;11.63;;;6.73;;
10701;SDS011;5402;50.004;8.246;2024-01-10T00:52:12;14.67;;;6.63;;
10701;SDS011;5402;50.004;8.246;2024-01-10T00:54:39;13.53;;;6.63;;
10701;SDS011;5402;50.004;8.246;2024-01-10T00:57:06;14.80;;;6.23;;
10701;SDS011;5402;50.004;8.246;2024-01-10T00:59:33;14.13;;;6.53;;
10701;SDS011;5402;50.004;8.246;2024-01-10T01:02:01;14.47;;;6.90;;
10701;SDS011;5402;50.004;8.246;2024-01-10T01:04:28;13.53;;;6.80;;
10701;SDS011;5402;50.004;8.246;2024-01-10T01:06:55;12.90;;;6.33;;
10701;SDS011;5402;50.004;8.246;2024-01-10T01:09:21;13.30;;;6.37;;
10701;SDS011;5402;50.004;8.246;2024-01-10T01:11:49;14.33;;;6.57;;
10701;SDS011;5402;50.004;8.246;2024-01-10T01:14:17;13.73;;;6.13;;
10701;SDS011;5402;50.004;8.246;2024-01-10T01:16:43;15.03;;;6.77;;
10701;SDS011;5402;50.004;8.246;2024-01-10T01:19:12;12.20;;;7.07;;
10701;SDS011;5402;50.004;8.246;2024-01-10T01:21:38;18.70;;;7.57;;
10701;SDS011;5402;50.004;8.246;2024-01-10T01:24:08;18.20;;;7.60;;
10701;SDS011;5402;50.004;8.246;2024-01-10T01:26:36;18.47;;;8.23;;
10701;SDS011;5402;50.004;8.246;2024-01-10T01:29:02;13.20;;;6.90;;
10701;SDS011;5402;50.004;8.246;2024-01-10T01:31:32;14.70;;;6.97;;
10701;SDS011;5402;50.004;8.246;2024-01-10T01:33:58;15.67;;;7.80;;
10701;SDS011;5402;50.004;8.246;2024-01-10T01:36:27;17.00;;;7.47;;
10701;SDS011;5402;50.004;8.246;2024-01-10T01:38:53;17.43;;;7.53;;
10701;SDS011;5402;50.004;8.246;2024-01-10T01:41:20;18.63;;;8.00;;
10701;SDS011;5402;50.004;8.246;2024-01-10T01:43:47;13.90;;;7.33;;
10701;SDS011;5402;50.004;8.246;2024-01-10T01:46:14;13.63;;;7.67;;
10701;SDS011;5402;50.004;8.246;2024-01-10T01:48:40;16.80;;;8.13;;
10701;SDS011;5402;50.004;8.246;2024-01-10T01:51:08;15.87;;;8.30;;
10701;SDS011;5402;50.004;8.246;2024-01-10T01:53:38;18.17;;;8.33;;
10701;SDS011;5402;50.004;8.246;2024-01-10T01:56:06;15.57;;;7.87;;
10701;SDS011;5402;50.004;8.246;2024-01-10T01:58:34;16.60;;;7.83;;
10701;SDS011;5402;50.004;8.246;2024-01-10T02:01:03;20.03;;;8.20;;
10701;SDS011;5402;50.004;8.246;2024-01-10T02:03:30;15.80;;;7.80;;
10701;SDS011;5402;50.004;8.246;2024-01-10T02:05:57;20.43;;;8.47;;
10701;SDS011;5402;50.004;8.246;2024-01-10T02:08:24;18.43;;;9.00;;
10701;SDS011;5402;50.004;8.246;2024-01-10T02:10:52;17.77;;;7.33;;
10701;SDS011;5402;50.004;8.246;2024-01-10T02:13:19;15.40;;;8.07;;
10701;SDS011;5402;50.004;8.246;2024-01-10T02:15:46;18.67;;;8.17;;
10701;SDS011;5402;50.004;8.246;2024-01-10T02:18:12;17.87;;;7.57;;
10701;SDS011;5402;50.004;8.246;2024-01-10T02:20:39;13.87;;;6.97;;
10701;SDS011;5402;50.004;8.246;2024-01-10T02:23:10;15.63;;;7.43;;
10701;SDS011;5402;50.004;8.246;2024-01-10T02:25:38;22.97;;;8.57;;
10701;SDS011;5402;50.004;8.246;2024-01-10T02:28:06;17.63;;;7.90;;
10701;SDS011;5402;50.004;8.246;2024-01-10T02:30:34;19.07;;;8.63;;
10701;SDS011;5402;50.004;8.246;2024-01-10T02:33:01;17.13;;;8.00;;
10701;SDS011;5402;50.004;8.246;2024-01-10T02:35:27;14.93;;;7.20;;
10701;SDS011;5402;50.004;8.246;2024-01-10T02:37:57;16.00;;;8.47;;
10701;SDS011;5402;50.004;8.246;2024-01-10T02:40:25;18.90;;;8.17;;
10701;SDS011;5402;50.004;8.246;2024-01-10T02:42:53;17.33;;;8.77;;
10701;SDS011;5402;50.004;8.246;2024-01-10T02:45:19;21.80;;;10.07;;
10701;SDS011;5402;50.004;8.246;2024-01-10T02:47:46;18.87;;;8.37;;
10701;SDS011;5402;50.004;8.246;2024-01-10T02:50:13;14.37;;;7.00;;
10701;SDS011;5402;50.004;8.246;2024-01-10T02:52:39;17.37;;;8.17;;
10701;SDS011;5402;50.004;8.246;2024-01-10T02:55:06;19.60;;;8.23;;
10701;SDS011;5402;50.004;8.246;2024-01-10T02:57:33;18.30;;;7.47;;
10701;SDS011;5402;50.004;8.246;2024-01-10T03:00:02;19.60;;;9.33;;
10701;SDS011;5402;50.004;8.246;2024-01-10T03:02:30;17.60;;;8.63;;
10701;SDS011;5402;50.004;8.246;2024-01-10T03:04:57;22.80;;;8.87;;
10701;SDS011;5402;50.004;8.246;2024-01-10T03:07:24;16.77;;;7.83;;
10701;SDS011;5402;50.004;8.246;2024-01-10T03:09:51;17.97;;;9.20;;
10701;SDS011;5402;50.004;8.246;2024-01-10T03:12:17;16.60;;;7.73;;
10701;SDS011;5402;50.004;8.246;2024-01-10T03:14:44;19.73;;;8.73;;
10701;SDS011;5402;50.004;8.246;2024-01-10T03:17:12;20.77;;;9.13;;
10701;SDS011;5402;50.004;8.246;2024-01-10T03:19:39;20.20;;;9.67;;
10701;SDS011;5402;50.004;8.246;2024-01-10T03:22:08;20.23;;;8.87;;
10701;SDS011;5402;50.004;8.246;2024-01-10T03:24:36;17.07;;;7.50;;
10701;SDS011;5402;50.004;8.246;2024-01-10T03:27:03;20.47;;;8.57;;
10701;SDS011;5402;50.004;8.246;2024-01-10T03:29:30;18.07;;;8.70;;
10701;SDS011;5402;50.004;8.246;2024-01-10T03:31:56;22.43;;;9.80;;
10701;SDS011;5402;50.004;8.246;2024-01-10T03:34:24;18.53;;;8.67;;
10701;SDS011;5402;50.004;8.246;2024-01-10T03:36:51;20.20;;;8.63;;
10701;SDS011;5402;50.004;8.246;2024-01-10T03:39:18;21.83;;;9.33;;
10701;SDS011;5402;50.004;8.246;2024-01-10T03:41:45;16.93;;;9.13;;
10701;SDS011;5402;50.004;8.246;2024-01-10T03:44:12;22.00;;;9.77;;
10701;SDS011;5402;50.004;8.246;2024-01-10T03:46:39;17.00;;;7.80;;
10701;SDS011;5402;50.004;8.246;2024-01-10T03:49:05;15.97;;;8.10;;
10701;SDS011;5402;50.004;8.246;2024-01-10T03:51:34;17.70;;;8.60;;
10701;SDS011;5402;50.004;8.246;2024-01-10T03:54:01;20.73;;;8.93;;
10701;SDS011;5402;50.004;8.246;2024-01-10T03:56:28;17.73;;;9.07;;
10701;SDS011;5402;50.004;8.246;2024-01-10T03:58:55;15.53;;;8.83;;
10701;SDS011;5402;50.004;8.246;2024-01-10T04:01:22;18.50;;;8.23;;
10701;SDS011;5402;50.004;8.246;2024-01-10T04:03:49;11.97;;;6.43;;
10701;SDS011;5402;50.004;8.246;2024-01-10T04:06:16;21.07;;;9.30;;
10701;SDS011;5402;50.004;8.246;2024-01-10T04:08:44;21.03;;;9.20;;
10701;SDS011;5402;50.004;8.246;2024-01-10T04:11:11;23.47;;;9.10;;
10701;SDS011;5402;50.004;8.246;2024-01-10T04:13:38;22.60;;;9.33;;
10701;SDS011;5402;50.004;8.246;2024-01-10T04:16:05;17.17;;;7.83;;
10701;SDS011;5402;50.004;8.246;2024-01-10T04:18:31;20.90;;;8.93;;
10701;SDS011;5402;50.004;8.246;2024-01-10T04:20:58;21.37;;;9.67;;
10701;SDS011;5402;50.004;8.246;2024-01-10T04:23:25;17.83;;;8.20;;
10701;SDS011;5402;50.004;8.246;2024-01-10T04:25:53;17.77;;;8.60;;
10701;SDS011;5402;50.004;8.246;2024-01-10T04:28:19;19.60;;;8.93;;
10701;SDS011;5402;50.004;8.246;2024-01-10T04:30:46;18.03;;;8.27;;
10701;SDS011;5402;50.004;8.246;2024-01-10T04:33:13;18.10;;;9.27;;
10701;SDS011;5402;50.004;8.246;2024-01-10T04:35:40;20.97;;;7.07;;
10701;SDS011;5402;50.004;8.246;2024-01-10T04:38:06;15.07;;;8.47;;
10701;SDS011;5402;50.004;8.246;2024-01-10T04:40:33;18.40;;;9.07;;
10701;SDS011;5402;50.004;8.246;2024-01-10T04:43:01;18.17;;;8.47;;
10701;SDS011;5402;50.004;8.246;2024-01-10T04:45:28;21.23;;;9.33;;
10701;SDS011;5402;50.004;8.246;2024-01-10T04:47:54;20.83;;;8.67;;
10701;SDS011;5402;50.004;8.246;2024-01-10T04:50:21;20.07;;;9.50;;
10701;SDS011;5402;50.004;8.246;2024-01-10T04:52:48;20.03;;;8.30;;
10701;SDS011;5402;50.004;8.246;2024-01-10T04:55:15;17.90;;;8.23;;
10701;SDS011;5402;50.004;8.246;2024-01-10T04:57:42;18.30;;;7.60;;
10701;SDS011;5402;50.004;8.246;2024-01-10T05:00:10;19.53;;;8.67;;
10701;SDS011;5402;50.004;8.246;2024-01-10T05:02:37;21.27;;;9.57;;
10701;SDS011;5402;50.004;8.246;2024-01-10T05:05:04;18.07;;;8.37;;
10701;SDS011;5402;50.004;8.246;2024-01-10T05:07:32;13.93;;;6.93;;
10701;SDS011;5402;50.004;8.246;2024-01-10T05:09:58;16.30;;;8.00;;
10701;SDS011;5402;50.004;8.246;2024-01-10T05:12:25;15.67;;;8.47;;
10701;SDS011;5402;50.004;8.246;2024-01-10T05:14:52;21.43;;;9.27;;
10701;SDS011;5402;50.004;8.246;2024-01-10T05:17:20;18.93;;;8.90;;
10701;SDS011;5402;50.004;8.246;2024-01-10T05:19:47;16.60;;;7.97;;
10701;SDS011;5402;50.004;8.246;2024-01-10T05:22:14;21.37;;;9.10;;
10701;SDS011;5402;50.004;8.246;2024-01-10T05:24:41;17.63;;;8.73;;
10701;SDS011;5402;50.004;8.246;2024-01-10T05:27:08;17.30;;;7.57;;
10701;SDS011;5402;50.004;8.246;2024-01-10T05:29:35;20.13;;;8.60;;
10701;SDS011;5402;50.004;8.246;2024-01-10T05:32:02;21.27;;;8.53;;
10701;SDS011;5402;50.004;8.246;2024-01-10T05:34:31;17.20;;;8.77;;
10701;SDS011;5402;50.004;8.246;2024-01-10T05:36:58;18.63;;;8.53;;
10701;SDS011;5402;50.004;8.246;2024-01-10T05:39:25;18.90;;;8.83;;
10701;SDS011;5402;50.004;8.246;2024-01-10T05:41:52;14.57;;;7.50;;
10701;SDS011;5402;50.004;8.246;2024-01-10T05:44:19;19.27;;;8.57;;
10701;SDS011;5402;50.004;8.246;2024-01-10T05:46:45;17.93;;;8.07;;
10701;SDS011;5402;50.004;8.246;2024-01-10T05:49:12;16.50;;;8.10;;
10701;SDS011;5402;50.004;8.246;2024-01-10T05:51:40;19.40;;;8.60;;
10701;SDS011;5402;50.004;8.246;2024-01-10T05:54:07;16.80;;;8.20;;
10701;SDS011;5402;50.004;8.246;2024-01-10T05:56:34;20.53;;;8.70;;
10701;SDS011;5402;50.004;8.246;2024-01-10T05:59:01;16.67;;;8.13;;
10701;SDS011;5402;50.004;8.246;2024-01-10T06:01:28;18.10;;;8.10;;
10701;SDS011;5402;50.004;8.246;2024-01-10T06:03:54;18.67;;;9.17;;
10701;SDS011;5402;50.004;8.246;2024-01-10T06:06:21;17.33;;;8.80;;
10701;SDS011;5402;50.004;8.246;2024-01-10T06:08:50;19.90;;;7.93;;
10701;SDS011;5402;50.004;8.246;2024-01-10T06:11:17;17.30;;;7.70;;
10701;SDS011;5402;50.004;8.246;2024-01-10T06:13:44;17.10;;;7.90;;
10701;SDS011;5402;50.004;8.246;2024-01-10T06:16:11;17.93;;;8.57;;
10701;SDS011;5402;50.004;8.246;2024-01-10T06:18:38;16.70;;;8.43;;
10701;SDS011;5402;50.004;8.246;2024-01-10T06:21:05;16.50;;;8.30;;
10701;SDS011;5402;50.004;8.246;2024-01-10T06:23:32;15.83;;;8.47;;
10701;SDS011;5402;50.004;8.246;2024-01-10T06:26:01;14.83;;;8.63;;
10701;SDS011;5402;50.004;8.246;2024-01-10T06:28:27;18.17;;;8.53;;
10701;SDS011;5402;50.004;8.246;2024-01-10T06:30:54;17.70;;;9.10;;
10701;SDS011;5402;50.004;8.246;2024-01-10T06:33:21;19.47;;;8.27;;
10701;SDS011;5402;50.004;8.246;2024-01-10T06:35:48;18.70;;;8.67;;
10701;SDS011;5402;50.004;8.246;2024-01-10T06:38:15;15.20;;;8.30;;
10701;SDS011;5402;50.004;8.246;2024-01-10T06:40:41;19.10;;;8.00;;
10701;SDS011;5402;50.004;8.246;2024-01-10T06:43:11;20.37;;;7.93;;
10701;SDS011;5402;50.004;8.246;2024-01-10T06:45:37;16.33;;;8.37;;
10701;SDS011;5402;50.004;8.246;2024-01-10T06:48:05;21.60;;;9.27;;
10701;SDS011;5402;50.004;8.246;2024-01-10T06:50:32;18.53;;;9.37;;
10701;SDS011;5402;50.004;8.246;2024-01-10T06:52:59;20.97;;;9.20;;
10701;SDS011;5402;50.004;8.246;2024-01-10T06:55:26;20.63;;;8.67;;
10701;SDS011;5402;50.004;8.246;2024-01-10T06:57:54;19.00;;;8.37;;
10701;SDS011;5402;50.004;8.246;2024-01-10T07:00:22;18.53;;;8.80;;
10701;SDS011;5402;50.004;8.246;2024-01-10T07:02:49;18.40;;;8.30;;
10701;SDS011;5402;50.004;8.246;2024-01-10T07:05:16;17.17;;;8.70;;
10701;SDS011;5402;50.004;8.246;2024-01-10T07:07:44;17.60;;;8.67;;
10701;SDS011;5402;50.004;8.246;2024-01-10T07:10:11;17.80;;;9.13;;
10701;SDS011;5402;50.004;8.246;2024-01-10T07:12:38;16.50;;;8.37;;
10701;SDS011;5402;50.004;8.246;2024-01-10T07:15:05;19.30;;;8.77;;
10701;SDS011;5402;50.004;8.246;2024-01-10T07:17:34;19.47;;;8.03;;
10701;SDS011;5402;50.004;8.246;2024-01-10T07:20:01;20.73;;;9.20;;
10701;SDS011;5402;50.004;8.246;2024-01-10T07:22:29;21.73;;;9.13;;
10701;SDS011;5402;50.004;8.246;2024-01-10T07:24:55;21.37;;;8.57;;
10701;SDS011;5402;50.004;8.246;2024-01-10T07:27:23;18.70;;;8.60;;
10701;SDS011;5402;50.004;8.246;2024-01-10T07:29:49;17.53;;;8.57;;
10701;SDS011;5402;50.004;8.246;2024-01-10T07:32:17;23.23;;;8.57;;
10701;SDS011;5402;50.004;8.246;2024-01-10T07:34:46;16.77;;;8.63;;
10701;SDS011;5402;50.004;8.246;2024-01-10T07:37:13;19.58;;;8.38;;
10701;SDS011;5402;50.004;8.246;2024-01-10T07:39:41;16.23;;;8.47;;
10701;SDS011;5402;50.004;8.246;2024-01-10T07:42:08;18.43;;;7.97;;
10701;SDS011;5402;50.004;8.246;2024-01-10T07:44:35;18.67;;;8.07;;
10701;SDS011;5402;50.004;8.246;2024-01-10T07:47:02;22.93;;;9.90;;
10701;SDS011;5402;50.004;8.246;2024-01-10T07:49:29;19.00;;;8.97;;
10701;SDS011;5402;50.004;8.246;2024-01-10T07:51:58;16.43;;;7.97;;
10701;SDS011;5402;50.004;8.246;2024-01-10T07:54:25;16.83;;;8.03;;
10701;SDS011;5402;50.004;8.246;2024-01-10T07:56:52;18.63;;;9.10;;
10701;SDS011;5402;50.004;8.246;2024-01-10T07:59:19;15.40;;;8.10;;
10701;SDS011;5402;50.004;8.246;2024-01-10T08:01:54;18.30;;;8.60;;
10701;SDS011;5402;50.004;8.246;2024-01-10T08:04:21;16.00;;;8.17;;
10701;SDS011;5402;50.004;8.246;2024-01-10T08:06:48;18.10;;;8.67;;
10701;SDS011;5402;50.004;8.246;2024-01-10T08:09:16;17.77;;;8.57;;
10701;SDS011;5402;50.004;8.246;2024-01-10T08:11:44;19.33;;;9.13;;
10701;SDS011;5402;50.004;8.246;2024-01-10T08:14:10;15.67;;;8.77;;
10701;SDS011;5402;50.004;8.246;2024-01-10T08:16:41;21.10;;;9.10;;
10701;SDS011;5402;50.004;8.246;2024-01-10T08:19:10;20.97;;;8.67;;
10701;SDS011;5402;50.004;8.246;2024-01-10T08:21:37;19.20;;;9.03;;
10701;SDS011;5402;50.004;8.246;2024-01-10T08:24:05;18.60;;;9.20;;
10701;SDS011;5402;50.004;8.246;2024-01-10T08:26:33;16.83;;;8.83;;
10701;SDS011;5402;50.004;8.246;2024-01-10T08:29:00;18.67;;;9.27;;
10701;SDS011;5402;50.004;8.246;2024-01-10T08:31:27;16.80;;;8.70;;
10701;SDS011;5402;50.004;8.246;2024-01-10T08:33:54;18.33;;;8.37;;
10701;SDS011;5402;50.004;8.246;2024-01-10T08:36:21;23.23;;;9.60;;
10701;SDS011;5402;50.004;8.246;2024-01-10T08:38:49;17.83;;;9.20;;
10701;SDS011;5402;50.004;8.246;2024-01-10T08:41:16;16.93;;;8.57;;
10701;SDS011;5402;50.004;8.246;2024-01-10T08:43:45;20.63;;;9.40;;
10701;SDS011;5402;50.004;8.246;2024-01-10T08:46:12;21.03;;;8.97;;
10701;SDS011;5402;50.004;8.246;2024-01-10T08:48:39;19.37;;;9.50;;
10701;SDS011;5402;50.004;8.246;2024-01-10T08:51:06;16.93;;;8.33;;
10701;SDS011;5402;50.004;8.246;2024-01-10T08:53:34;16.97;;;8.73;;
10701;SDS011;5402;50.004;8.246;2024-01-10T08:56:01;17.47;;;8.83;;
10701;SDS011;5402;50.004;8.246;2024-01-10T08:58:28;19.73;;;9.17;;
10701;SDS011;5402;50.004;8.246;2024-01-10T09:00:56;19.23;;;9.33;;
10701;SDS011;5402;50.004;8.246;2024-01-10T09:03:23;16.90;;;9.27;;
10701;SDS011;5402;50.004;8.246;2024-01-10T09:05:49;17.70;;;9.60;;
10701;SDS011;5402;50.004;8.246;2024-01-10T09:08:16;17.10;;;9.07;;
10701;SDS011;5402;50.004;8.246;2024-01-10T09:10:43;15.47;;;8.23;;
10701;SDS011;5402;50.004;8.246;2024-01-10T09:13:10;20.40;;;9.77;;
10701;SDS011;5402;50.004;8.246;2024-01-10T09:15:37;19.77;;;9.27;;
10701;SDS011;5402;50.004;8.246;2024-01-10T09:18:05;20.37;;;8.97;;
10701;SDS011;5402;50.004;8.246;2024-01-10T09:20:32;20.67;;;9.30;;
10701;SDS011;5402;50.004;8.246;2024-01-10T09:23:00;23.13;;;9.83;;
10701;SDS011;5402;50.004;8.246;2024-01-10T09:25:27;15.90;;;8.33;;
10701;SDS011;5402;50.004;8.246;2024-01-10T09:27:54;18.47;;;9.43;;
10701;SDS011;5402;50.004;8.246;2024-01-10T09:30:21;18.87;;;9.40;;
10701;SDS011;5402;50.004;8.246;2024-01-10T09:32:49;19.00;;;8.83;;
10701;SDS011;5402;50.004;8.246;2024-01-10T09:35:17;21.50;;;9.03;;
10701;SDS011;5402;50.004;8.246;2024-01-10T09:37:44;16.87;;;8.57;;
10701;SDS011;5402;50.004;8.246;2024-01-10T09:40:11;20.87;;;9.57;;
10701;SDS011;5402;50.004;8.246;2024-01-10T09:42:43;17.90;;;8.80;;
10701;SDS011;5402;50.004;8.246;2024-01-10T09:45:11;21.93;;;9.07;;
10701;SDS011;5402;50.004;8.246;2024-01-10T09:47:39;21.00;;;9.17;;
10701;SDS011;5402;50.004;8.246;2024-01-10T09:50:11;21.23;;;8.80;;
10701;SDS011;5402;50.004;8.246;2024-01-10T09:52:41;15.37;;;8.80;;
10701;SDS011;5402;50.004;8.246;2024-01-10T09:55:10;21.43;;;9.97;;
10701;SDS011;5402;50.004;8.246;2024-01-10T09:57:39;19.67;;;9.17;;
10701;SDS011;5402;50.004;8.246;2024-01-10T10:00:08;19.87;;;9.10;;
10701;SDS011;5402;50.004;8.246;2024-01-10T10:02:37;17.13;;;8.53;;
10701;SDS011;5402;50.004;8.246;2024-01-10T10:05:07;18.70;;;9.23;;
10701;SDS011;5402;50.004;8.246;2024-01-10T10:07:45;20.00;;;8.77;;
10701;SDS011;5402;50.004;8.246;2024-01-10T10:10:15;17.90;;;8.60;;
10701;SDS011;5402;50.004;8.246;2024-01-10T10:12:43;18.23;;;9.03;;
10701;SDS011;5402;50.004;8.246;2024-01-10T10:15:11;21.47;;;9.43;;
10701;SDS011;5402;50.004;8.246;2024-01-10T10:17:39;15.67;;;8.67;;
10701;SDS011;5402;50.004;8.246;2024-01-10T10:20:11;21.40;;;9.93;;
10701;SDS011;5402;50.004;8.246;2024-01-10T10:22:40;18.60;;;9.73;;
10701;SDS011;5402;50.004;8.246;2024-01-10T10:25:25;20.73;;;9.30;;
10701;SDS011;5402;50.004;8.246;2024-01-10T10:27:59;19.60;;;8.90;;
10701;SDS011;5402;50.004;8.246;2024-01-10T10:30:30;22.87;;;9.37;;
10701;SDS011;5402;50.004;8.246;2024-01-10T10:32:57;20.73;;;9.50;;
10701;SDS011;5402;50.004;8.246;2024-01-10T10:35:24;19.97;;;9.17;;
10701;SDS011;5402;50.004;8.246;2024-01-10T10:37:52;17.90;;;9.27;;
10701;SDS011;5402;50.004;8.246;2024-01-10T10:40:22;19.97;;;10.03;;
10701;SDS011;5402;50.004;8.246;2024-01-10T10:42:56;19.90;;;8.60;;
10701;SDS011;5402;50.004;8.246;2024-01-10T10:45:23;20.00;;;9.77;;
10701;SDS011;5402;50.004;8.246;2024-01-10T10:47:53;20.03;;;9.50;;
10701;SDS011;5402;50.004;8.246;2024-01-10T10:50:24;19.83;;;9.40;;
10701;SDS011;5402;50.004;8.246;2024-01-10T10:52:56;16.80;;;9.73;;
10701;SDS011;5402;50.004;8.246;2024-01-10T10:55:24;17.73;;;9.20;;
10701;SDS011;5402;50.004;8.246;2024-01-10T10:57:53;21.53;;;9.77;;
10701;SDS011;5402;50.004;8.246;2024-01-10T11:00:22;21.20;;;9.20;;
10701;SDS011;5402;50.004;8.246;2024-01-10T11:02:52;16.50;;;9.07;;
10701;SDS011;5402;50.004;8.246;2024-01-10T11:05:20;19.43;;;9.03;;
10701;SDS011;5402;50.004;8.246;2024-01-10T11:07:47;21.00;;;9.60;;
10701;SDS011;5402;50.004;8.246;2024-01-10T11:10:16;15.83;;;9.37;;
10701;SDS011;5402;50.004;8.246;2024-01-10T11:12:53;18.70;;;9.07;;
10701;SDS011;5402;50.004;8.246;2024-01-10T11:15:39;19.00;;;9.77;;
10701;SDS011;5402;50.004;8.246;2024-01-10T11:18:28;20.03;;;9.20;;
10701;SDS011;5402;50.004;8.246;2024-01-10T11:21:11;17.77;;;8.93;;
10701;SDS011;5402;50.004;8.246;2024-01-10T11:23:52;16.70;;;8.70;;
10701;SDS011;5402;50.004;8.246;2024-01-10T11:26:22;18.00;;;8.03;;
10701;SDS011;5402;50.004;8.246;2024-01-10T11:28:52;19.33;;;9.47;;
10701;SDS011;5402;50.004;8.246;2024-01-10T11:31:27;19.03;;;9.40;;
10701;SDS011;5402;50.004;8.246;2024-01-10T11:33:55;24.20;;;10.10;;
10701;SDS011;5402;50.004;8.246;2024-01-10T11:36:22;18.70;;;9.83;;
10701;SDS011;5402;50.004;8.246;2024-01-10T11:38:53;19.87;;;10.00;;
10701;SDS011;5402;50.004;8.246;2024-01-10T11:41:23;22.63;;;10.43;;
10701;SDS011;5402;50.004;8.246;2024-01-10T11:46:53;21.17;;;9.80;;
10701;SDS011;5402;50.004;8.246;2024-01-10T11:49:22;18.30;;;8.93;;
10701;SDS011;5402;50.004;8.246;2024-01-10T11:51:52;17.57;;;9.40;;
10701;SDS011;5402;50.004;8.246;2024-01-10T11:54:37;18.40;;;8.70;;
10701;SDS011;5402;50.004;8.246;2024-01-10T11:57:18;19.97;;;9.23;;
10701;SDS011;5402;50.004;8.246;2024-01-10T11:59:49;19.90;;;9.00;;
10701;SDS011;5402;50.004;8.246;2024-01-10T12:02:17;15.47;;;8.40;;
10701;SDS011;5402;50.004;8.246;2024-01-10T12:04:45;15.63;;;8.40;;
10701;SDS011;5402;50.004;8.246;2024-01-10T12:07:12;17.57;;;7.83;;
10701;SDS011;5402;50.004;8.246;2024-01-10T12:09:39;13.27;;;8.47;;
10701;SDS011;5402;50.004;8.246;2024-01-10T12:12:07;14.40;;;7.77;;
10701;SDS011;5402;50.004;8.246;2024-01-10T12:14:34;14.93;;;7.70;;
10701;SDS011;5402;50.004;8.246;2024-01-10T12:17:03;17.40;;;8.73;;
10701;SDS011;5402;50.004;8.246;2024-01-10T12:19:34;15.50;;;8.47;;
10701;SDS011;5402;50.004;8.246;2024-01-10T12:22:02;19.20;;;9.07;;
10701;SDS011;5402;50.004;8.246;2024-01-10T12:24:30;16.00;;;8.40;;
10701;SDS011;5402;50.004;8.246;2024-01-10T12:26:59;17.13;;;9.63;;
10701;SDS011;5402;50.004;8.246;2024-01-10T12:29:26;20.37;;;8.73;;
10701;SDS011;5402;50.004;8.246;2024-01-10T12:31:55;15.40;;;8.80;;
10701;SDS011;5402;50.004;8.246;2024-01-10T12:34:33;16.80;;;7.77;;
10701;SDS011;5402;50.004;8.246;2024-01-10T12:37:03;19.00;;;8.73;;
10701;SDS011;5402;50.004;8.246;2024-01-10T12:39:30;17.17;;;8.73;;
10701;SDS011;5402;50.004;8.246;2024-01-10T12:41:57;16.37;;;8.57;;
10701;SDS011;5402;50.004;8.246;2024-01-10T12:44:26;16.07;;;8.90;;
10701;SDS011;5402;50.004;8.246;2024-01-10T12:46:54;20.03;;;9.23;;
10701;SDS011;5402;50.004;8.246;2024-01-10T12:49:22;18.33;;;7.87;;
10701;SDS011;5402;50.004;8.246;2024-01-10T12:51:50;18.27;;;8.40;;
10701;SDS011;5402;50.004;8.246;2024-01-10T12:54:19;17.80;;;8.73;;
10701;SDS011;5402;50.004;8.246;2024-01-10T12:56:46;17.60;;;8.80;;
10701;SDS011;5402;50.004;8.246;2024-01-10T12:59:13;17.63;;;9.33;;
10701;SDS011;5402;50.004;8.246;2024-01-10T13:01:40;15.73;;;9.00;;
10701;SDS011;5402;50.004;8.246;2024-01-10T13:04:09;16.57;;;8.93;;
10701;SDS011;5402;50.004;8.246;2024-01-10T13:06:37;19.10;;;8.47;;
10701;SDS011;5402;50.004;8.246;2024-01-10T13:09:05;18.27;;;9.63;;
10701;SDS011;5402;50.004;8.246;2024-01-10T13:11:32;17.90;;;9.33;;
10701;SDS011;5402;50.004;8.246;2024-01-10T13:13:59;16.23;;;9.00;;
10701;SDS011;5402;50.004;8.246;2024-01-10T13:16:26;19.17;;;8.80;;
10701;SDS011;5402;50.004;8.246;2024-01-10T13:18:53;13.47;;;7.50;;
10701;SDS011;5402;50.004;8.246;2024-01-10T13:21:22;15.83;;;8.30;;
10701;SDS011;5402;50.004;8.246;2024-01-10T13:23:49;17.00;;;8.83;;
10701;SDS011;5402;50.004;8.246;2024-01-10T13:26:17;16.47;;;8.73;;
10701;SDS011;5402;50.004;8.246;2024-01-10T13:28:44;19.53;;;8.67;;
10701;SDS011;5402;50.004;8.246;2024-01-10T13:31:11;14.57;;;8.37;;
10701;SDS011;5402;50.004;8.246;2024-01-10T13:33:38;15.13;;;8.03;;
10701;SDS011;5402;50.004;8.246;2024-01-10T13:36:05;28.50;;;13.90;;
10701;SDS011;5402;50.004;8.246;2024-01-10T13:38:32;14.47;;;8.80;;
10701;SDS011;5402;50.004;8.246;2024-01-10T13:41:00;16.27;;;8.50;;
10701;SDS011;5402;50.004;8.246;2024-01-10T13:43:28;19.53;;;9.00;;
10701;SDS011;5402;50.004;8.246;2024-01-10T13:45:55;16.00;;;8.23;;
10701;SDS011;5402;50.004;8.246;2024-01-10T13:48:28;16.20;;;8.23;;
10701;SDS011;5402;50.004;8.246;2024-01-10T13:50:57;16.00;;;7.87;;
10701;SDS011;5402;50.004;8.246;2024-01-10T13:53:24;17.37;;;8.67;;
10701;SDS011;5402;50.004;8.246;2024-01-10T13:55:57;19.37;;;9.40;;
10701;SDS011;5402;50.004;8.246;2024-01-10T13:58:24;18.23;;;8.80;;
10701;SDS011;5402;50.004;8.246;2024-01-10T14:00:54;17.13;;;8.50;;
10701;SDS011;5402;50.004;8.246;2024-01-10T14:03:21;15.10;;;8.20;;
10701;SDS011;5402;50.004;8.246;2024-01-10T14:05:49;18.50;;;8.40;;
10701;SDS011;5402;50.004;8.246;2024-01-10T14:08:16;19.30;;;8.47;;
10701;SDS011;5402;50.004;8.246;2024-01-10T14:10:43;16.53;;;9.00;;
10701;SDS011;5402;50.004;8.246;2024-01-10T14:13:09;19.13;;;8.17;;
10701;SDS011;5402;50.004;8.246;2024-01-10T14:15:36;15.37;;;8.50;;
10701;SDS011;5402;50.004;8.246;2024-01-10T14:18:06;14.57;;;8.50;;
10701;SDS011;5402;50.004;8.246;2024-01-10T14:20:34;12.57;;;6.57;;
10701;SDS011;5402;50.004;8.246;2024-01-10T14:23:01;16.30;;;8.73;;
10701;SDS011;5402;50.004;8.246;2024-01-10T14:25:28;14.53;;;7.57;;
10701;SDS011;5402;50.004;8.246;2024-01-10T14:27:55;16.50;;;7.37;;
10701;SDS011;5402;50.004;8.246;2024-01-10T14:30:23;16.67;;;8.50;;
10701;SDS011;5402;50.004;8.246;2024-01-10T14:32:52;14.33;;;7.70;;
10701;SDS011;5402;50.004;8.246;2024-01-10T14:35:20;15.80;;;7.97;;
10701;SDS011;5402;50.004;8.246;2024-01-10T14:37:47;14.90;;;7.73;;
10701;SDS011;5402;50.004;8.246;2024-01-10T14:40:14;16.63;;;7.90;;
10701;SDS011;5402;50.004;8.246;2024-01-10T14:42:41;13.43;;;8.83;;
10701;SDS011;5402;50.004;8.246;2024-01-10T14:45:08;18.67;;;7.80;;
10701;SDS011;5402;50.004;8.246;2024-01-10T14:47:35;17.03;;;8.20;;
10701;SDS011;5402;50.004;8.246;2024-01-10T14:50:03;16.27;;;8.60;;
10701;SDS011;5402;50.004;8.246;2024-01-10T14:52:32;16.87;;;8.73;;
10701;SDS011;5402;50.004;8.246;2024-01-10T14:54:59;18.77;;;8.67;;